1989 HARRY (1989037S16164)


On this page: IBTrACS data - Map and Plots - Positions - Intensities - Original source data

Summary

Start Feb 6
End Feb 23
Basin SP
LMI 130 kt
Sources jtwc_sh
bom
wellington
td9636
neumann
In WMO? Yes
Previous storm 1989 KIRRILY (SI)
Previous in basin 1989 GINA (SP)
Concurrent storms 1989 FIRINGA (SI)
1989 KIRRILY (SI)
1989 HARRY (SP)
1989 MISSING (SP)
1989 HANITRA (SI)
1989 GIZELA (SI)
1989 HINANO (SP)
1989 JUDY (SP)
1989 IVY (SP)
1989 HSK2189 (SI)
Next in basin 1989 MISSING (SP)
Next storm 1989 MISSING (SP)

top of page IBTrACS Data: File Access

top of page HURSAT Data: File Access

Image of storm

top of page Plots:

Map of storm track will not appear if FTP is down
Time series of cyclone Maximum Sustained Wind will not appear if FTP is down
Time series of cyclone Minimum Central Pressure will not appear if FTP is down

top of page Track Data:Position

jtwc_sh bom wellington td9636 neumann
Date Lat Lon Lat Lon Lat Lon Lat Lon Lat Lon
1989-02-06 06:00:00 -15.5 163.7 -15.5 163.7 -15.5 163.7
1989-02-06 12:00:00 -15.8 163.2 -15.8 163.2 -15.8 163.2
1989-02-06 18:00:00 -16.2 162.7 -16.1 162.8 -16.2 162.7
1989-02-07 00:00:00 -16.3 162.4 -16.3 162.4 -16.3 162.4
1989-02-07 06:00:00 -16.5 162.0 -16.5 162.1 -16.5 162.0
1989-02-07 12:00:00 -16.7 161.8 -16.7 161.8 -16.7 161.8
1989-02-07 18:00:00 -17.0 161.5 -17.0 161.5 -17.0 161.5
1989-02-08 00:00:00 -17.3 161.4 -17.2 160.9 -17.3 161.4 -17.3 161.4
1989-02-08 06:00:00 -17.7 161.6 -17.7 161.4 -17.9 161.7 -17.7 161.6
1989-02-08 12:00:00 -18.3 162.3 -18.0 162.0 -18.3 162.3 -18.3 162.3
1989-02-08 18:00:00 -18.5 163.1 -18.2 162.7 -18.3 163.0 -18.5 163.1
1989-02-09 00:00:00 -18.2 163.7 -18.3 163.4 -18.2 163.7 -18.2 163.7
1989-02-09 06:00:00 -18.1 164.3 -18.3 164.0 -18.2 164.4 -18.1 164.3
1989-02-09 12:00:00 -18.3 165.0 -18.3 164.8 -18.3 165.0 -18.3 165.0
1989-02-09 18:00:00 -18.5 165.5 -18.4 165.3 -18.5 165.5 -18.5 165.5
1989-02-10 00:00:00 -18.7 165.6 -18.5 165.6 -18.7 165.6 -18.7 165.6
1989-02-10 06:00:00 -19.2 165.6 -18.7 165.8 -19.0 165.6 -19.2 165.6
1989-02-10 12:00:00 -19.3 165.5 -19.1 165.7 -19.3 165.5 -19.3 165.5
1989-02-10 18:00:00 -19.7 165.4 -19.6 165.3 -19.7 165.3 -19.7 165.4
1989-02-11 00:00:00 -20.1 164.9 -20.0 164.7 -20.1 164.9 -20.1 164.9
1989-02-11 06:00:00 -20.5 164.4 -20.3 164.3 -20.6 164.3 -20.5 164.4
1989-02-11 12:00:00 -20.9 163.6 -20.5 163.8 -20.9 163.6 -20.9 163.6
1989-02-11 18:00:00 -21.0 162.9 -20.7 163.2 -21.0 163.0 -21.0 162.9
1989-02-12 00:00:00 -20.9 162.5 -20.8 162.5 -20.9 162.5 -20.9 162.5
1989-02-12 06:00:00 -20.7 162.2 -20.7 162.0 -20.8 162.0 -20.7 162.2
jtwc_sh bom wellington td9636 neumann
1989-02-12 12:00:00 -20.6 161.5 -20.4 161.5 -20.6 161.5 -20.6 161.5
1989-02-12 18:00:00 -20.4 161.1 -20.2 161.1 -20.3 161.0 -20.4 161.1
1989-02-13 00:00:00 -20.0 160.6 -19.9 160.7 -20.0 160.6 -20.0 160.6
1989-02-13 06:00:00 -19.7 160.1 -19.6 160.3 -19.7 160.2 -19.7 160.1
1989-02-13 12:00:00 -19.4 159.7 -19.3 159.7 -19.4 159.9 -19.4 159.7 -19.4 159.7
1989-02-13 18:00:00 -19.3 159.3 -19.2 159.3 -19.2 159.4 -19.3 159.2 -19.3 159.3
1989-02-14 00:00:00 -19.2 158.8 -19.2 158.8 -19.0 158.9 -19.2 158.8 -19.2 158.8
1989-02-14 06:00:00 -19.0 158.4 -19.1 158.4 -18.9 158.6 -19.1 158.3 -19.0 158.4
1989-02-14 12:00:00 -19.0 157.9 -19.9 158.0 -18.9 158.5 -19.0 157.9 -19.0 157.9
1989-02-14 18:00:00 -19.1 157.6 -19.3 157.6 -18.9 158.3 -19.1 157.6 -19.1 157.6
1989-02-15 00:00:00 -19.3 157.4 -19.4 157.4 -19.0 158.0 -19.3 157.4 -19.3 157.4
1989-02-15 06:00:00 -19.4 157.4 -19.3 157.2 -19.1 157.5 -19.4 157.4 -19.4 157.4
1989-02-15 12:00:00 -19.5 157.5 -19.1 157.1 -19.3 157.2 -19.5 157.5 -19.5 157.5
1989-02-15 18:00:00 -19.6 157.6 -19.3 156.9 -19.4 157.1 -19.6 157.6 -19.6 157.6
1989-02-16 00:00:00 -19.7 157.7 -19.6 157.2 -19.6 157.1 -19.7 157.7 -19.7 157.7
1989-02-16 06:00:00 -19.8 157.8 -19.8 157.8 -19.7 157.4 -19.7 157.9 -19.8 157.8
1989-02-16 12:00:00 -19.8 158.2 -19.6 158.1 -19.8 158.1 -19.8 158.2 -19.8 158.2
1989-02-16 18:00:00 -19.9 158.8 -20.0 158.7 -20.0 159.0 -20.0 158.8 -19.9 158.8
1989-02-17 00:00:00 -20.3 159.5 -20.5 159.6 -20.2 159.6 -20.3 159.5 -20.3 159.5
1989-02-17 06:00:00 -20.7 160.2 -20.9 160.4 -20.7 160.4 -20.7 160.2 -20.7 160.2
1989-02-17 12:00:00 -21.2 160.9 -21.3 161.3 -21.2 160.9 -21.2 160.9
1989-02-17 18:00:00 -21.7 161.7 -21.9 161.9 -21.7 161.8 -21.7 161.7
1989-02-18 00:00:00 -22.3 162.6 -22.5 162.5 -22.3 162.6 -22.3 162.6
1989-02-18 06:00:00 -23.0 163.0 -23.3 163.3 -23.0 163.3 -23.0 163.0
jtwc_sh bom wellington td9636 neumann
1989-02-18 12:00:00 -23.9 163.9 -24.2 164.0 -23.9 163.9 -23.9 163.9
1989-02-18 18:00:00 -24.7 164.9 -25.0 164.7 -24.9 164.8 -24.7 164.9
1989-02-19 00:00:00 -25.8 165.4 -25.8 165.2 -25.8 165.4 -25.8 165.4
1989-02-19 06:00:00 -26.5 165.4 -26.7 165.5 -26.5 165.5 -26.5 165.4
1989-02-19 12:00:00 -27.2 165.2 -27.6 165.3 -27.2 165.2 -27.2 165.2
1989-02-19 18:00:00 -27.8 164.9 -28.7 164.7 -27.9 164.8 -27.8 164.9
1989-02-20 00:00:00 -28.8 164.3 -29.9 163.9 -28.8 164.3 -28.8 164.3
1989-02-20 06:00:00 -29.7 163.8 -31.0 163.0 -29.8 163.7 -29.7 163.8
1989-02-20 12:00:00 -30.9 163.2 -32.3 162.3 -30.9 163.2 -30.9 163.2
1989-02-20 18:00:00 -32.2 163.0 -33.8 162.2 -32.1 163.0 -32.2 163.0
1989-02-21 00:00:00 -33.6 163.0 -35.4 162.6 -33.6 163.0 -33.6 163.0
1989-02-21 06:00:00 -35.5 163.1 -36.9 163.3 -35.5 163.0 -35.5 163.1
1989-02-21 12:00:00 -37.8 163.3 -38.6 164.0 -37.8 163.3 -37.8 163.3
1989-02-21 18:00:00 -40.3 164.0 -40.5 164.6 -40.3 164.0 -40.3 164.0
1989-02-22 00:00:00 -43.0 165.0 -43.4 165.7 -43.0 165.0 -43.0 165.0
1989-02-22 06:00:00 -45.6 167.9
1989-02-22 12:00:00 -47.2 170.7
1989-02-22 18:00:00 -48.2 173.4
1989-02-23 00:00:00 -49.0 175.9

top of pageTrack Data:Intensity

jtwc_sh bom wellington td9636 neumann
Date Wind Pres Wind Pres Wind Pres Wind Pres Wind Pres
1989-02-06 06:00:00 20. 20. 20.
1989-02-06 12:00:00 20. 20. 20.
1989-02-06 18:00:00 25. 20. 25.
1989-02-07 00:00:00 25. 25. 25.
1989-02-07 06:00:00 25. 25. 25.
1989-02-07 12:00:00 25. 25. 25.
1989-02-07 18:00:00 30. 25. 30.
1989-02-08 00:00:00 30. 30. 997. 30. 30.
1989-02-08 06:00:00 35. 35. 995. 30. 35.
1989-02-08 12:00:00 45. 40. 990. 45. 45.
1989-02-08 18:00:00 45. 40. 990. 45. 45.
1989-02-09 00:00:00 55. 45. 987. 55. 55.
1989-02-09 06:00:00 55. 50. 985. 55. 55.
1989-02-09 12:00:00 60. 55. 980. 60. 60.
1989-02-09 18:00:00 70. 55. 980. 70. 70.
1989-02-10 00:00:00 80. 55. 980. 80. 80.
1989-02-10 06:00:00 90. 60. 975. 80. 90.
1989-02-10 12:00:00 110. 65. 970. 110. 110.
1989-02-10 18:00:00 115. 65. 970. 110. 115.
1989-02-11 00:00:00 115. 70. 965. 115. 115.
1989-02-11 06:00:00 110. 70. 965. 115. 110.
1989-02-11 12:00:00 105. 75. 960. 105. 105.
1989-02-11 18:00:00 100. 75. 960. 105. 100.
1989-02-12 00:00:00 95. 80. 955. 95. 95.
1989-02-12 06:00:00 90. 80. 955. 95. 90.
jtwc_sh bom wellington td9636 neumann
1989-02-12 12:00:00 80. 85. 945. 80. 80.
1989-02-12 18:00:00 80. 85. 945. 80. 80.
1989-02-13 00:00:00 80. 90. 940. 80. 80.
1989-02-13 06:00:00 90. 90. 940. 80. 90.
1989-02-13 12:00:00 95. 74. 960. 95. 930. 95. 95.
1989-02-13 18:00:00 105. 78. 945. 95. 930. 95. 105.
1989-02-14 00:00:00 115. 99. 925. 100. 925. 115. 115.
1989-02-14 06:00:00 125. 99. 925. 100. 925. 115. 125.
1989-02-14 12:00:00 130. 99. 925. 100. 925. 130. 130.
1989-02-14 18:00:00 125. 91. 945. 100. 925. 130. 125.
1989-02-15 00:00:00 120. 91. 945. 100. 925. 120. 120.
1989-02-15 06:00:00 115. 91. 945. 100. 925. 120. 115.
1989-02-15 12:00:00 115. 91. 945. 90. 940. 115. 115.
1989-02-15 18:00:00 110. 76. 954. 85. 945. 115. 110.
1989-02-16 00:00:00 110. 76. 957. 80. 955. 110. 110.
1989-02-16 06:00:00 105. 74. 960. 80. 955. 110. 105.
1989-02-16 12:00:00 95. 62. 972. 70. 965. 95. 95.
1989-02-16 18:00:00 90. 60. 974. 60. 975. 95. 90.
1989-02-17 00:00:00 80. 56. 976. 60. 975. 80. 80.
1989-02-17 06:00:00 80. 54. 977. 60. 975. 80. 80.
1989-02-17 12:00:00 80. 55. 980. 80. 80.
1989-02-17 18:00:00 80. 55. 980. 80. 80.
1989-02-18 00:00:00 70. 50. 985. 70. 70.
1989-02-18 06:00:00 60. 45. 987. 70. 60.
jtwc_sh bom wellington td9636 neumann
1989-02-18 12:00:00 55. 45. 987. 55. 55.
1989-02-18 18:00:00 45. 45. 987. 55. 45.
1989-02-19 00:00:00 35. 45. 987. 35. 35.
1989-02-19 06:00:00 35. 50. 985. 35. 35.
1989-02-19 12:00:00 35. 50. 985. 35. 35.
1989-02-19 18:00:00 40. 50. 985. 35. 40.
1989-02-20 00:00:00 45. 50. 985. 45. 45.
1989-02-20 06:00:00 50. 50. 985. 45. 50.
1989-02-20 12:00:00 60. 55. 980. 60. 60.
1989-02-20 18:00:00 55. 55. 980. 60. 55.
1989-02-21 00:00:00 55. 55. 980. 55. 55.
1989-02-21 06:00:00 55. 55. 980. 55. 55.
1989-02-21 12:00:00 55. 55. 980. 55. 55.
1989-02-21 18:00:00 60. 50. 985. 55. 60.
1989-02-22 00:00:00 60. 40. 990. 60. 60.
1989-02-22 06:00:00 40. 990.
1989-02-22 12:00:00 40. 990.
1989-02-22 18:00:00 40. 990.
1989-02-23 00:00:00 35. 995.

top of page Links to source data

Source Source file Format
jtwc_sh bsh101989.txt ATCF
bom Newcyclonedatabase-08repair.csv:Line=15203:HARRY CSV file (from Excel file)
wellington TC_BT_1967_2006.csv:Line=3252:HARRY Text table
td9636 cons_worldwide_trop_cyclone_18710101-19891231-006:Line=13232 TD 9636
neumann tracks.sh:Storm=848:HARRY:BSH101989:JTWC&Fiji&BM776 HURDAT